sensor_id;sensor_type;location;lat;lon;timestamp;P1;durP1;ratioP1;P2;durP2;ratioP2
19778;SDS011;10049;59.306;18.090;2022-11-03T06:24:14;5.40;;;1.20;;
19778;SDS011;10049;59.306;18.090;2022-11-03T06:26:44;6.88;;;1.50;;
19778;SDS011;10049;59.306;18.090;2022-11-03T06:29:13;7.32;;;1.70;;
19778;SDS011;10049;59.306;18.090;2022-11-03T06:31:41;5.75;;;1.55;;
19778;SDS011;10049;59.306;18.090;2022-11-03T06:34:17;2.88;;;1.23;;
19778;SDS011;10049;59.306;18.090;2022-11-03T06:36:49;2.15;;;1.25;;
19778;SDS011;10049;59.306;18.090;2022-11-03T06:39:42;4.72;;;1.40;;
19778;SDS011;10049;59.306;18.090;2022-11-03T06:42:32;6.03;;;1.50;;
19778;SDS011;10049;59.306;18.090;2022-11-03T06:45:11;5.45;;;1.35;;
19778;SDS011;10049;59.306;18.090;2022-11-03T06:50:38;7.45;;;1.45;;
19778;SDS011;10049;59.306;18.090;2022-11-03T07:05:22;7.75;;;1.40;;
19778;SDS011;10049;59.306;18.090;2022-11-03T07:07:51;3.95;;;1.10;;
19778;SDS011;10049;59.306;18.090;2022-11-03T07:10:21;2.53;;;1.20;;
19778;SDS011;10049;59.306;18.090;2022-11-03T07:13:00;4.13;;;1.13;;
19778;SDS011;10049;59.306;18.090;2022-11-03T07:36:27;6.13;;;1.25;;
19778;SDS011;10049;59.306;18.090;2022-11-03T07:38:57;7.13;;;1.08;;
19778;SDS011;10049;59.306;18.090;2022-11-03T07:41:27;2.80;;;1.00;;
19778;SDS011;10049;59.306;18.090;2022-11-03T07:43:58;3.15;;;1.25;;
19778;SDS011;10049;59.306;18.090;2022-11-03T07:59:14;9.88;;;1.38;;
19778;SDS011;10049;59.306;18.090;2022-11-03T08:17:30;1.73;;;0.88;;
19778;SDS011;10049;59.306;18.090;2022-11-03T08:22:41;2.50;;;1.30;;
19778;SDS011;10049;59.306;18.090;2022-11-03T08:28:00;2.65;;;1.20;;
19778;SDS011;10049;59.306;18.090;2022-11-03T08:33:33;4.43;;;1.05;;
19778;SDS011;10049;59.306;18.090;2022-11-03T08:42:24;1.60;;;0.70;;
19778;SDS011;10049;59.306;18.090;2022-11-03T09:12:47;4.97;;;1.90;;
19778;SDS011;10049;59.306;18.090;2022-11-03T09:24:32;2.97;;;1.00;;
19778;SDS011;10049;59.306;18.090;2022-11-03T10:53:27;5.15;;;1.02;;
19778;SDS011;10049;59.306;18.090;2022-11-03T11:27:00;5.53;;;1.35;;
19778;SDS011;10049;59.306;18.090;2022-11-03T12:19:37;5.05;;;1.05;;
19778;SDS011;10049;59.306;18.090;2022-11-03T12:22:46;4.07;;;1.23;;
19778;SDS011;10049;59.306;18.090;2022-11-03T12:37:58;2.42;;;0.73;;
19778;SDS011;10049;59.306;18.090;2022-11-03T12:40:26;6.70;;;1.27;;
19778;SDS011;10049;59.306;18.090;2022-11-03T12:42:53;3.13;;;0.88;;
19778;SDS011;10049;59.306;18.090;2022-11-03T12:45:20;2.60;;;0.98;;
19778;SDS011;10049;59.306;18.090;2022-11-03T12:47:48;6.05;;;0.98;;
19778;SDS011;10049;59.306;18.090;2022-11-03T12:50:15;4.90;;;0.95;;
19778;SDS011;10049;59.306;18.090;2022-11-03T12:52:43;7.30;;;1.13;;
19778;SDS011;10049;59.306;18.090;2022-11-03T12:55:11;4.88;;;1.05;;
19778;SDS011;10049;59.306;18.090;2022-11-03T12:57:39;3.70;;;1.40;;
19778;SDS011;10049;59.306;18.090;2022-11-03T13:00:07;6.40;;;0.90;;
19778;SDS011;10049;59.306;18.090;2022-11-03T13:02:36;3.47;;;1.05;;
19778;SDS011;10049;59.306;18.090;2022-11-03T13:05:07;4.68;;;0.85;;
19778;SDS011;10049;59.306;18.090;2022-11-03T13:07:39;3.47;;;1.00;;
19778;SDS011;10049;59.306;18.090;2022-11-03T13:10:09;7.35;;;1.20;;
19778;SDS011;10049;59.306;18.090;2022-11-03T13:12:39;4.57;;;1.00;;
19778;SDS011;10049;59.306;18.090;2022-11-03T13:15:09;5.13;;;1.23;;
19778;SDS011;10049;59.306;18.090;2022-11-03T13:17:37;5.22;;;1.55;;
19778;SDS011;10049;59.306;18.090;2022-11-03T13:20:10;3.00;;;1.10;;
19778;SDS011;10049;59.306;18.090;2022-11-03T13:22:40;3.80;;;1.00;;
19778;SDS011;10049;59.306;18.090;2022-11-03T13:25:07;9.23;;;1.13;;
19778;SDS011;10049;59.306;18.090;2022-11-03T13:27:35;5.88;;;1.27;;
19778;SDS011;10049;59.306;18.090;2022-11-03T13:30:05;2.95;;;0.98;;
19778;SDS011;10049;59.306;18.090;2022-11-03T13:32:37;4.40;;;1.00;;
19778;SDS011;10049;59.306;18.090;2022-11-03T13:35:05;3.83;;;0.80;;
19778;SDS011;10049;59.306;18.090;2022-11-03T13:37:32;5.60;;;1.15;;
19778;SDS011;10049;59.306;18.090;2022-11-03T13:43:13;6.68;;;1.35;;
19778;SDS011;10049;59.306;18.090;2022-11-03T13:46:14;5.65;;;1.50;;
19778;SDS011;10049;59.306;18.090;2022-11-03T13:48:41;3.67;;;1.27;;
19778;SDS011;10049;59.306;18.090;2022-11-03T13:51:09;8.80;;;1.17;;
19778;SDS011;10049;59.306;18.090;2022-11-03T13:53:40;5.50;;;0.80;;
19778;SDS011;10049;59.306;18.090;2022-11-03T13:56:08;9.63;;;1.20;;
19778;SDS011;10049;59.306;18.090;2022-11-03T13:58:35;6.75;;;1.50;;
19778;SDS011;10049;59.306;18.090;2022-11-03T14:01:04;4.90;;;1.42;;
19778;SDS011;10049;59.306;18.090;2022-11-03T14:03:33;6.18;;;1.15;;
19778;SDS011;10049;59.306;18.090;2022-11-03T14:06:00;10.63;;;1.50;;
19778;SDS011;10049;59.306;18.090;2022-11-03T14:08:29;9.48;;;1.88;;
19778;SDS011;10049;59.306;18.090;2022-11-03T14:10:57;5.70;;;1.25;;
19778;SDS011;10049;59.306;18.090;2022-11-03T14:13:45;4.28;;;1.30;;
19778;SDS011;10049;59.306;18.090;2022-11-03T14:16:11;8.35;;;1.25;;
19778;SDS011;10049;59.306;18.090;2022-11-03T14:18:50;5.50;;;1.60;;
19778;SDS011;10049;59.306;18.090;2022-11-03T14:21:27;5.75;;;1.30;;
19778;SDS011;10049;59.306;18.090;2022-11-03T14:23:54;6.57;;;1.50;;
19778;SDS011;10049;59.306;18.090;2022-11-03T14:26:22;4.18;;;1.38;;
19778;SDS011;10049;59.306;18.090;2022-11-03T14:28:50;6.95;;;1.90;;
19778;SDS011;10049;59.306;18.090;2022-11-03T14:31:17;10.38;;;1.75;;
19778;SDS011;10049;59.306;18.090;2022-11-03T14:33:47;6.70;;;1.17;;
19778;SDS011;10049;59.306;18.090;2022-11-03T14:36:14;5.13;;;1.00;;
19778;SDS011;10049;59.306;18.090;2022-11-03T14:38:42;4.07;;;1.23;;
19778;SDS011;10049;59.306;18.090;2022-11-03T14:41:09;5.47;;;1.08;;
19778;SDS011;10049;59.306;18.090;2022-11-03T14:43:54;7.45;;;1.40;;
19778;SDS011;10049;59.306;18.090;2022-11-03T14:46:24;5.55;;;1.48;;
19778;SDS011;10049;59.306;18.090;2022-11-03T14:48:54;5.88;;;1.40;;
19778;SDS011;10049;59.306;18.090;2022-11-03T14:51:22;10.73;;;1.65;;
19778;SDS011;10049;59.306;18.090;2022-11-03T14:53:49;4.75;;;1.30;;
19778;SDS011;10049;59.306;18.090;2022-11-03T14:56:17;7.28;;;1.30;;
19778;SDS011;10049;59.306;18.090;2022-11-03T14:58:44;5.93;;;1.38;;
19778;SDS011;10049;59.306;18.090;2022-11-03T15:01:12;7.25;;;1.30;;
19778;SDS011;10049;59.306;18.090;2022-11-03T15:03:41;6.80;;;1.35;;
19778;SDS011;10049;59.306;18.090;2022-11-03T15:06:10;6.72;;;1.27;;
19778;SDS011;10049;59.306;18.090;2022-11-03T15:08:38;5.47;;;1.10;;
19778;SDS011;10049;59.306;18.090;2022-11-03T15:11:06;4.75;;;1.42;;
19778;SDS011;10049;59.306;18.090;2022-11-03T15:13:34;4.78;;;1.17;;
19778;SDS011;10049;59.306;18.090;2022-11-03T15:16:02;5.13;;;1.10;;
19778;SDS011;10049;59.306;18.090;2022-11-03T15:18:29;5.22;;;1.30;;
19778;SDS011;10049;59.306;18.090;2022-11-03T15:20:57;8.10;;;1.42;;
19778;SDS011;10049;59.306;18.090;2022-11-03T15:23:26;3.90;;;1.08;;
19778;SDS011;10049;59.306;18.090;2022-11-03T15:25:54;6.53;;;1.75;;
19778;SDS011;10049;59.306;18.090;2022-11-03T15:28:21;5.20;;;1.25;;
19778;SDS011;10049;59.306;18.090;2022-11-03T15:30:49;5.85;;;1.38;;
19778;SDS011;10049;59.306;18.090;2022-11-03T15:33:16;6.30;;;1.35;;
19778;SDS011;10049;59.306;18.090;2022-11-03T15:35:43;4.57;;;1.17;;
19778;SDS011;10049;59.306;18.090;2022-11-03T15:38:13;8.75;;;1.58;;
19778;SDS011;10049;59.306;18.090;2022-11-03T15:40:42;7.15;;;1.30;;
19778;SDS011;10049;59.306;18.090;2022-11-03T15:43:10;4.50;;;1.10;;
19778;SDS011;10049;59.306;18.090;2022-11-03T15:45:38;4.28;;;1.42;;
19778;SDS011;10049;59.306;18.090;2022-11-03T15:48:05;7.07;;;1.50;;
19778;SDS011;10049;59.306;18.090;2022-11-03T15:50:36;11.13;;;1.92;;
19778;SDS011;10049;59.306;18.090;2022-11-03T15:53:04;5.10;;;1.83;;
19778;SDS011;10049;59.306;18.090;2022-11-03T15:55:31;7.90;;;1.67;;
19778;SDS011;10049;59.306;18.090;2022-11-03T15:58:00;7.88;;;2.00;;
19778;SDS011;10049;59.306;18.090;2022-11-03T16:00:27;5.72;;;2.08;;
19778;SDS011;10049;59.306;18.090;2022-11-03T16:02:55;4.75;;;1.63;;
19778;SDS011;10049;59.306;18.090;2022-11-03T16:05:22;7.30;;;1.83;;
19778;SDS011;10049;59.306;18.090;2022-11-03T16:07:50;6.82;;;1.58;;
19778;SDS011;10049;59.306;18.090;2022-11-03T16:10:18;3.25;;;1.42;;
19778;SDS011;10049;59.306;18.090;2022-11-03T16:12:46;5.68;;;1.80;;
19778;SDS011;10049;59.306;18.090;2022-11-03T16:15:16;8.00;;;1.90;;
19778;SDS011;10049;59.306;18.090;2022-11-03T16:17:43;5.28;;;2.00;;
19778;SDS011;10049;59.306;18.090;2022-11-03T16:20:10;8.13;;;2.10;;
19778;SDS011;10049;59.306;18.090;2022-11-03T16:22:38;9.00;;;1.88;;
19778;SDS011;10049;59.306;18.090;2022-11-03T16:25:06;7.00;;;2.15;;
19778;SDS011;10049;59.306;18.090;2022-11-03T16:27:33;8.95;;;1.92;;
19778;SDS011;10049;59.306;18.090;2022-11-03T16:30:01;8.00;;;2.15;;
19778;SDS011;10049;59.306;18.090;2022-11-03T16:32:31;7.50;;;1.63;;
19778;SDS011;10049;59.306;18.090;2022-11-03T16:35:01;6.57;;;1.90;;
19778;SDS011;10049;59.306;18.090;2022-11-03T16:37:28;8.77;;;2.33;;
19778;SDS011;10049;59.306;18.090;2022-11-03T16:39:58;8.88;;;1.85;;
19778;SDS011;10049;59.306;18.090;2022-11-03T16:42:25;9.23;;;2.50;;
19778;SDS011;10049;59.306;18.090;2022-11-03T16:44:53;8.57;;;2.28;;
19778;SDS011;10049;59.306;18.090;2022-11-03T16:47:21;12.18;;;2.20;;
19778;SDS011;10049;59.306;18.090;2022-11-03T16:49:52;7.53;;;2.20;;
19778;SDS011;10049;59.306;18.090;2022-11-03T16:52:23;7.40;;;3.00;;
19778;SDS011;10049;59.306;18.090;2022-11-03T16:54:51;12.30;;;2.45;;
19778;SDS011;10049;59.306;18.090;2022-11-03T16:57:19;9.00;;;2.17;;
19778;SDS011;10049;59.306;18.090;2022-11-03T16:59:47;8.30;;;1.80;;
19778;SDS011;10049;59.306;18.090;2022-11-03T17:02:15;7.85;;;2.28;;
19778;SDS011;10049;59.306;18.090;2022-11-03T17:04:45;5.05;;;2.47;;
19778;SDS011;10049;59.306;18.090;2022-11-03T17:07:13;9.00;;;2.28;;
19778;SDS011;10049;59.306;18.090;2022-11-03T17:09:41;10.13;;;1.95;;
19778;SDS011;10049;59.306;18.090;2022-11-03T17:12:08;15.02;;;2.70;;
19778;SDS011;10049;59.306;18.090;2022-11-03T17:14:36;11.30;;;2.25;;
19778;SDS011;10049;59.306;18.090;2022-11-03T17:17:03;6.50;;;1.80;;
19778;SDS011;10049;59.306;18.090;2022-11-03T17:19:31;8.50;;;2.00;;
19778;SDS011;10049;59.306;18.090;2022-11-03T17:21:58;11.48;;;2.67;;
19778;SDS011;10049;59.306;18.090;2022-11-03T17:24:30;6.95;;;2.10;;
19778;SDS011;10049;59.306;18.090;2022-11-03T17:26:58;8.73;;;1.77;;
19778;SDS011;10049;59.306;18.090;2022-11-03T17:29:29;7.00;;;1.77;;
19778;SDS011;10049;59.306;18.090;2022-11-03T17:31:59;7.85;;;1.63;;
19778;SDS011;10049;59.306;18.090;2022-11-03T17:34:27;9.30;;;2.10;;
19778;SDS011;10049;59.306;18.090;2022-11-03T17:36:55;5.13;;;1.67;;
19778;SDS011;10049;59.306;18.090;2022-11-03T17:39:25;8.63;;;2.10;;
19778;SDS011;10049;59.306;18.090;2022-11-03T17:41:58;8.45;;;2.00;;
19778;SDS011;10049;59.306;18.090;2022-11-03T17:44:35;7.13;;;1.88;;
19778;SDS011;10049;59.306;18.090;2022-11-03T17:47:02;6.97;;;1.90;;
19778;SDS011;10049;59.306;18.090;2022-11-03T17:49:30;9.80;;;2.22;;
19778;SDS011;10049;59.306;18.090;2022-11-03T17:51:57;8.38;;;1.92;;
19778;SDS011;10049;59.306;18.090;2022-11-03T17:54:25;5.28;;;1.67;;
19778;SDS011;10049;59.306;18.090;2022-11-03T17:56:57;5.78;;;1.90;;
19778;SDS011;10049;59.306;18.090;2022-11-03T17:59:24;11.57;;;2.20;;
19778;SDS011;10049;59.306;18.090;2022-11-03T18:01:52;8.18;;;1.80;;
19778;SDS011;10049;59.306;18.090;2022-11-03T18:04:19;7.40;;;2.13;;
19778;SDS011;10049;59.306;18.090;2022-11-03T18:06:47;10.55;;;2.25;;
19778;SDS011;10049;59.306;18.090;2022-11-03T18:09:14;5.88;;;2.08;;
19778;SDS011;10049;59.306;18.090;2022-11-03T18:11:41;8.50;;;2.05;;
19778;SDS011;10049;59.306;18.090;2022-11-03T18:14:28;7.85;;;1.75;;
19778;SDS011;10049;59.306;18.090;2022-11-03T18:16:56;13.65;;;2.05;;
19778;SDS011;10049;59.306;18.090;2022-11-03T18:19:24;7.53;;;1.98;;
19778;SDS011;10049;59.306;18.090;2022-11-03T18:21:52;12.00;;;2.35;;
19778;SDS011;10049;59.306;18.090;2022-11-03T18:24:19;7.40;;;2.00;;
19778;SDS011;10049;59.306;18.090;2022-11-03T18:26:46;10.65;;;1.83;;
19778;SDS011;10049;59.306;18.090;2022-11-03T18:29:14;11.75;;;2.10;;
19778;SDS011;10049;59.306;18.090;2022-11-03T18:31:44;10.25;;;1.90;;
19778;SDS011;10049;59.306;18.090;2022-11-03T18:34:16;11.95;;;2.00;;
19778;SDS011;10049;59.306;18.090;2022-11-03T18:36:44;11.43;;;2.63;;
19778;SDS011;10049;59.306;18.090;2022-11-03T18:39:13;10.10;;;1.95;;
19778;SDS011;10049;59.306;18.090;2022-11-03T18:41:42;10.48;;;2.03;;
19778;SDS011;10049;59.306;18.090;2022-11-03T18:44:11;12.23;;;2.22;;
19778;SDS011;10049;59.306;18.090;2022-11-03T18:46:40;5.70;;;1.83;;
19778;SDS011;10049;59.306;18.090;2022-11-03T18:49:09;10.13;;;3.17;;
19778;SDS011;10049;59.306;18.090;2022-11-03T18:51:37;8.05;;;1.75;;
19778;SDS011;10049;59.306;18.090;2022-11-03T18:54:05;6.53;;;1.70;;
19778;SDS011;10049;59.306;18.090;2022-11-03T18:56:34;8.35;;;2.25;;
19778;SDS011;10049;59.306;18.090;2022-11-03T18:59:02;8.93;;;2.10;;
19778;SDS011;10049;59.306;18.090;2022-11-03T19:01:29;6.68;;;2.00;;
19778;SDS011;10049;59.306;18.090;2022-11-03T19:03:57;7.05;;;1.80;;
19778;SDS011;10049;59.306;18.090;2022-11-03T19:06:26;12.13;;;2.30;;
19778;SDS011;10049;59.306;18.090;2022-11-03T19:08:55;6.53;;;1.92;;
19778;SDS011;10049;59.306;18.090;2022-11-03T19:11:24;6.63;;;2.00;;
19778;SDS011;10049;59.306;18.090;2022-11-03T19:13:52;11.27;;;1.92;;
19778;SDS011;10049;59.306;18.090;2022-11-03T19:16:20;6.82;;;1.83;;
19778;SDS011;10049;59.306;18.090;2022-11-03T19:18:48;10.27;;;2.15;;
19778;SDS011;10049;59.306;18.090;2022-11-03T19:21:17;10.02;;;2.35;;
19778;SDS011;10049;59.306;18.090;2022-11-03T19:23:46;7.22;;;2.15;;
19778;SDS011;10049;59.306;18.090;2022-11-03T19:26:16;8.23;;;2.03;;
19778;SDS011;10049;59.306;18.090;2022-11-03T19:28:49;9.43;;;2.08;;
19778;SDS011;10049;59.306;18.090;2022-11-03T19:31:19;8.32;;;2.00;;
19778;SDS011;10049;59.306;18.090;2022-11-03T19:33:48;7.85;;;1.67;;
19778;SDS011;10049;59.306;18.090;2022-11-03T19:36:16;11.70;;;2.13;;
19778;SDS011;10049;59.306;18.090;2022-11-03T19:38:43;7.97;;;2.35;;
19778;SDS011;10049;59.306;18.090;2022-11-03T19:41:13;10.63;;;2.28;;
19778;SDS011;10049;59.306;18.090;2022-11-03T19:43:58;6.43;;;2.17;;
19778;SDS011;10049;59.306;18.090;2022-11-03T19:46:26;9.57;;;1.40;;
19778;SDS011;10049;59.306;18.090;2022-11-03T19:48:54;10.70;;;2.08;;
19778;SDS011;10049;59.306;18.090;2022-11-03T19:51:22;6.82;;;2.42;;
19778;SDS011;10049;59.306;18.090;2022-11-03T19:53:50;8.88;;;2.42;;
19778;SDS011;10049;59.306;18.090;2022-11-03T19:56:19;7.63;;;2.08;;
19778;SDS011;10049;59.306;18.090;2022-11-03T19:58:47;9.02;;;2.38;;
19778;SDS011;10049;59.306;18.090;2022-11-03T20:01:22;8.68;;;2.25;;
19778;SDS011;10049;59.306;18.090;2022-11-03T20:03:55;7.35;;;1.88;;
19778;SDS011;10049;59.306;18.090;2022-11-03T20:06:22;4.85;;;1.83;;
19778;SDS011;10049;59.306;18.090;2022-11-03T20:08:50;5.82;;;1.90;;
19778;SDS011;10049;59.306;18.090;2022-11-03T20:11:18;9.38;;;2.08;;
19778;SDS011;10049;59.306;18.090;2022-11-03T20:13:47;7.32;;;2.05;;
19778;SDS011;10049;59.306;18.090;2022-11-03T20:16:15;5.03;;;1.88;;
19778;SDS011;10049;59.306;18.090;2022-11-03T20:18:42;8.07;;;2.20;;
19778;SDS011;10049;59.306;18.090;2022-11-03T20:21:12;7.65;;;1.85;;
19778;SDS011;10049;59.306;18.090;2022-11-03T20:23:41;8.98;;;2.00;;
19778;SDS011;10049;59.306;18.090;2022-11-03T20:26:10;10.02;;;2.67;;
19778;SDS011;10049;59.306;18.090;2022-11-03T20:28:38;9.02;;;2.00;;
19778;SDS011;10049;59.306;18.090;2022-11-03T20:31:08;9.63;;;2.42;;
19778;SDS011;10049;59.306;18.090;2022-11-03T20:33:37;11.32;;;2.22;;
19778;SDS011;10049;59.306;18.090;2022-11-03T20:36:04;8.00;;;2.38;;
19778;SDS011;10049;59.306;18.090;2022-11-03T20:38:32;10.65;;;3.38;;
19778;SDS011;10049;59.306;18.090;2022-11-03T20:41:01;14.73;;;4.80;;
19778;SDS011;10049;59.306;18.090;2022-11-03T20:43:30;15.95;;;3.90;;
19778;SDS011;10049;59.306;18.090;2022-11-03T20:45:58;13.82;;;4.15;;
19778;SDS011;10049;59.306;18.090;2022-11-03T20:48:27;13.80;;;4.43;;
19778;SDS011;10049;59.306;18.090;2022-11-03T20:50:55;12.93;;;4.78;;
19778;SDS011;10049;59.306;18.090;2022-11-03T20:53:23;10.95;;;4.20;;
19778;SDS011;10049;59.306;18.090;2022-11-03T20:55:51;10.32;;;3.90;;
19778;SDS011;10049;59.306;18.090;2022-11-03T20:58:19;10.80;;;3.90;;
19778;SDS011;10049;59.306;18.090;2022-11-03T21:00:46;10.52;;;4.13;;
19778;SDS011;10049;59.306;18.090;2022-11-03T21:03:15;14.68;;;3.70;;
19778;SDS011;10049;59.306;18.090;2022-11-03T21:05:46;10.15;;;3.28;;
19778;SDS011;10049;59.306;18.090;2022-11-03T21:08:13;12.90;;;3.97;;
19778;SDS011;10049;59.306;18.090;2022-11-03T21:10:41;11.98;;;3.08;;
19778;SDS011;10049;59.306;18.090;2022-11-03T21:13:10;6.22;;;2.80;;
19778;SDS011;10049;59.306;18.090;2022-11-03T21:15:38;8.38;;;2.75;;
19778;SDS011;10049;59.306;18.090;2022-11-03T21:18:23;8.07;;;3.20;;
19778;SDS011;10049;59.306;18.090;2022-11-03T21:21:10;12.30;;;2.90;;
19778;SDS011;10049;59.306;18.090;2022-11-03T21:23:38;8.82;;;2.58;;
19778;SDS011;10049;59.306;18.090;2022-11-03T21:26:05;11.98;;;2.65;;
19778;SDS011;10049;59.306;18.090;2022-11-03T21:28:33;9.88;;;2.53;;
19778;SDS011;10049;59.306;18.090;2022-11-03T21:31:01;10.63;;;2.72;;
19778;SDS011;10049;59.306;18.090;2022-11-03T21:33:28;12.38;;;2.80;;
19778;SDS011;10049;59.306;18.090;2022-11-03T21:35:56;10.02;;;2.45;;
19778;SDS011;10049;59.306;18.090;2022-11-03T21:38:25;11.95;;;2.90;;
19778;SDS011;10049;59.306;18.090;2022-11-03T21:40:53;11.82;;;2.50;;
19778;SDS011;10049;59.306;18.090;2022-11-03T21:43:40;9.70;;;2.58;;
19778;SDS011;10049;59.306;18.090;2022-11-03T21:46:25;7.40;;;2.35;;
19778;SDS011;10049;59.306;18.090;2022-11-03T21:48:53;8.57;;;2.17;;
19778;SDS011;10049;59.306;18.090;2022-11-03T21:51:37;13.73;;;2.60;;
19778;SDS011;10049;59.306;18.090;2022-11-03T21:54:07;7.38;;;2.13;;
19778;SDS011;10049;59.306;18.090;2022-11-03T21:56:34;10.02;;;2.50;;
19778;SDS011;10049;59.306;18.090;2022-11-03T21:59:02;10.05;;;2.22;;
19778;SDS011;10049;59.306;18.090;2022-11-03T22:01:29;8.95;;;2.30;;
19778;SDS011;10049;59.306;18.090;2022-11-03T22:03:57;8.55;;;2.15;;
19778;SDS011;10049;59.306;18.090;2022-11-03T22:06:25;7.63;;;2.78;;
19778;SDS011;10049;59.306;18.090;2022-11-03T22:08:52;6.72;;;2.25;;
19778;SDS011;10049;59.306;18.090;2022-11-03T22:11:21;8.93;;;2.40;;
19778;SDS011;10049;59.306;18.090;2022-11-03T22:13:53;12.48;;;2.53;;
19778;SDS011;10049;59.306;18.090;2022-11-03T22:16:21;14.10;;;2.50;;
19778;SDS011;10049;59.306;18.090;2022-11-03T22:19:05;7.53;;;2.33;;
19778;SDS011;10049;59.306;18.090;2022-11-03T22:21:51;10.52;;;2.50;;
19778;SDS011;10049;59.306;18.090;2022-11-03T22:24:36;6.28;;;2.45;;
19778;SDS011;10049;59.306;18.090;2022-11-03T22:27:24;10.18;;;2.85;;
19778;SDS011;10049;59.306;18.090;2022-11-03T22:29:52;8.18;;;2.85;;
19778;SDS011;10049;59.306;18.090;2022-11-03T22:32:37;7.97;;;2.40;;
19778;SDS011;10049;59.306;18.090;2022-11-03T22:35:05;7.57;;;2.42;;
19778;SDS011;10049;59.306;18.090;2022-11-03T22:38:00;9.88;;;2.65;;
19778;SDS011;10049;59.306;18.090;2022-11-03T22:40:27;7.40;;;2.40;;
19778;SDS011;10049;59.306;18.090;2022-11-03T22:43:14;11.88;;;2.92;;
19778;SDS011;10049;59.306;18.090;2022-11-03T22:45:58;11.55;;;2.60;;
19778;SDS011;10049;59.306;18.090;2022-11-03T22:48:26;13.77;;;3.00;;
19778;SDS011;10049;59.306;18.090;2022-11-03T22:50:54;8.50;;;2.83;;
19778;SDS011;10049;59.306;18.090;2022-11-03T22:53:22;12.98;;;3.00;;
19778;SDS011;10049;59.306;18.090;2022-11-03T22:56:07;7.63;;;2.60;;
19778;SDS011;10049;59.306;18.090;2022-11-03T22:58:36;7.43;;;3.45;;
19778;SDS011;10049;59.306;18.090;2022-11-03T23:01:04;9.27;;;2.70;;
19778;SDS011;10049;59.306;18.090;2022-11-03T23:03:35;13.77;;;2.65;;
19778;SDS011;10049;59.306;18.090;2022-11-03T23:06:03;12.43;;;3.42;;
19778;SDS011;10049;59.306;18.090;2022-11-03T23:08:31;10.27;;;3.05;;
19778;SDS011;10049;59.306;18.090;2022-11-03T23:11:03;6.50;;;2.50;;
19778;SDS011;10049;59.306;18.090;2022-11-03T23:13:30;10.55;;;3.05;;
19778;SDS011;10049;59.306;18.090;2022-11-03T23:15:59;8.45;;;2.78;;
19778;SDS011;10049;59.306;18.090;2022-11-03T23:18:27;13.32;;;2.83;;
19778;SDS011;10049;59.306;18.090;2022-11-03T23:21:12;8.40;;;3.22;;
19778;SDS011;10049;59.306;18.090;2022-11-03T23:23:39;7.57;;;2.22;;
19778;SDS011;10049;59.306;18.090;2022-11-03T23:26:25;9.70;;;2.80;;
19778;SDS011;10049;59.306;18.090;2022-11-03T23:28:52;10.95;;;3.33;;
19778;SDS011;10049;59.306;18.090;2022-11-03T23:31:22;6.20;;;2.40;;
19778;SDS011;10049;59.306;18.090;2022-11-03T23:33:49;5.97;;;2.50;;
19778;SDS011;10049;59.306;18.090;2022-11-03T23:36:17;7.10;;;3.03;;
19778;SDS011;10049;59.306;18.090;2022-11-03T23:38:45;14.82;;;3.58;;
19778;SDS011;10049;59.306;18.090;2022-11-03T23:41:13;11.23;;;3.10;;
19778;SDS011;10049;59.306;18.090;2022-11-03T23:43:41;11.35;;;2.50;;
19778;SDS011;10049;59.306;18.090;2022-11-03T23:46:09;9.60;;;3.25;;
19778;SDS011;10049;59.306;18.090;2022-11-03T23:48:55;11.80;;;3.17;;
19778;SDS011;10049;59.306;18.090;2022-11-03T23:51:25;7.93;;;2.67;;
19778;SDS011;10049;59.306;18.090;2022-11-03T23:53:53;10.52;;;2.47;;
19778;SDS011;10049;59.306;18.090;2022-11-03T23:56:21;7.65;;;2.50;;
19778;SDS011;10049;59.306;18.090;2022-11-03T23:59:07;5.55;;;2.42;;
